Latest Weather Observations for Moruya Airport

IDN60801

Issued at 7:35 am EST Thursday 28 May 2015 (issued every 30 minutes, with the page automatically refreshed every 10 minutes)

About weather observations | Map of weather stations | Latest weather observations for NSW | Other Formats
Station Details ID: 069148 Name: MORUYA AIRPORT AWS Lat: -35.90 Lon: 150.14 Height: 4.0 m
Data from the previous 72 hours. | See also: Recent months for locations in New South Wales
Date/Time
EST
Temp
°C
App
Temp
°C
Dew
Point
Rel
Hum
%
Delta-T
°C
Wind Press
QNH
hPa
Press
MSL
hPa
Rain
since 9 am
mm
Dir
 
Spd
km/h
Gust
km/h
Spd
kts
Gust
kts
28/07:30am 13.0 12.7 10.2 83 1.4 WNW 2 7 1 4 1021.2 1021.2 0.0
28/07:00am 12.4 11.2 9.6 83 1.4 WNW 6 11 3 6 1021.0 1021.0 0.0
28/06:30am 12.1 10.9 9.7 85 1.2 NW 6 11 3 6 1020.9 1020.9 0.0
28/06:00am 12.2 11.5 9.9 86 1.2 WNW 4 7 2 4 1020.5 1020.5 0.0
28/05:30am 12.0 11.2 9.7 86 1.2 WNW 4 7 2 4 1020.3 1020.3 0.0
28/05:00am 12.5 11.3 10.2 86 1.2 W 7 11 4 6 1020.2 1020.2 0.0
28/04:30am 11.7 10.5 9.6 87 1.1 NW 6 7 3 4 1020.2 1020.2 0.0
28/04:00am 13.4 12.2 9.5 77 2.0 NW 6 9 3 5 1020.2 1020.2 0.0
28/03:30am 14.1 12.9 9.7 75 2.3 NW 6 9 3 5 1020.2 1020.2 0.0
28/03:00am 13.6 12.5 9.8 78 1.9 WNW 6 11 3 6 1020.3 1020.3 0.0
28/02:30am 14.2 12.5 10.0 76 2.2 WNW 9 15 5 8 1020.6 1020.6 0.0
28/02:00am 14.8 13.4 9.6 71 2.7 WNW 7 11 4 6 1020.7 1020.7 0.0
28/01:30am 15.6 13.4 9.5 67 3.2 WNW 11 15 6 8 1020.9 1020.9 0.0
28/01:00am 15.4 13.4 10.0 70 2.8 WNW 11 17 6 9 1020.7 1020.7 0.0
28/12:30am 14.5 12.8 9.9 74 2.4 NW 9 13 5 7 1020.8 1020.8 0.0
28/12:00am 14.7 13.6 9.9 73 2.5 NW 6 9 3 5 1021.0 1021.0 0.0
 
Date/Time
EST
Temp
°C
App
Temp
°C
Dew
Point
Rel
Hum
%
Delta-T
°C
Wind Press
QNH
hPa
Press
MSL
hPa
Rain
since 9 am
mm
Dir
 
Spd
km/h
Gust
km/h
Spd
kts
Gust
kts
27/11:30pm 15.6 13.9 9.9 69 3.0 WNW 9 15 5 8 1021.0 1021.0 0.0
27/11:00pm 15.4 13.9 10.4 72 2.6 NW 9 13 5 7 1021.2 1021.2 0.0
27/10:30pm 15.5 14.2 11.1 75 2.3 NW 9 17 5 9 1021.1 1021.1 0.0
27/10:00pm 12.2 11.3 11.4 95 0.4 WNW 7 11 4 6 1021.2 1021.2 0.0
27/09:30pm 12.7 13.1 11.1 90 0.8 CALM 0 0 0 0 1021.1 1021.1 0.0
27/09:00pm 14.4 13.9 11.9 85 1.3 NNW 6 9 3 5 1021.0 1021.0 0.0
27/08:30pm 13.3 13.0 12.8 97 0.3 W 6 9 3 5 1021.1 1021.1 0.0
27/08:00pm 13.3 13.9 13.1 99 0.1 N 2 9 1 5 1021.1 1021.1 0.0
27/07:30pm 13.7 13.5 13.1 96 0.3 W 6 9 3 5 1021.0 1021.0 0.0
27/07:00pm 13.0 12.6 13.0 100 0.0 W 7 11 4 6 1021.0 1021.0 0.0
27/06:30pm 13.0 12.6 13.0 100 0.0 W 7 13 4 7 1020.6 1020.6 0.0
27/06:00pm 13.2 13.0 13.0 99 0.1 NNW 6 9 3 5 1020.3 1020.3 0.0
27/05:30pm 13.6 14.4 12.7 94 0.5 CALM 0 0 0 0 1020.3 1020.3 0.0
27/05:00pm 15.0 14.8 13.0 88 1.1 NNW 6 7 3 4 1020.1 1020.1 0.0
27/04:36pm 17.1 16.5 13.6 80 2.0 N 9 11 5 6 1019.9 1019.9 0.0
27/04:30pm 17.3 16.3 13.4 78 2.2 NNE 11 15 6 8 1019.8 1019.8 0.0
27/04:18pm 18.1 17.1 13.4 74 2.7 NNE 11 15 6 8 1019.8 1019.8 0.0
27/04:00pm 18.6 17.1 13.2 71 3.0 NNE 13 17 7 9 1019.9 1019.9 0.0
27/03:30pm 18.7 17.1 12.7 68 3.4 NNE 13 17 7 9 1019.8 1019.8 0.0
27/03:00pm 19.4 17.5 11.7 61 4.2 NE 13 15 7 8 1019.9 1019.9 0.0
27/02:30pm 19.4 17.6 10.7 57 4.7 NE 11 15 6 8 1020.0 1020.0 0.0
27/02:00pm 19.3 17.5 10.8 58 4.6 ENE 11 15 6 8 1019.9 1019.9 0.0
27/01:30pm 19.0 17.7 11.1 60 4.3 ENE 9 11 5 6 1020.3 1020.3 0.0
27/01:00pm 18.3 16.5 10.9 62 4.0 ENE 11 15 6 8 1020.5 1020.5 0.0
27/12:30pm 18.1 16.8 11.4 65 3.7 ENE 9 13 5 7 1020.9 1020.9 0.0
27/12:00pm 17.7 17.4 11.3 66 3.5 ENE 4 7 2 4 1021.5 1021.5 0.0
27/11:30am 16.7 15.6 10.5 67 3.3 E 7 13 4 7 1021.9 1021.9 0.0
27/11:00am 16.4 16.3 10.7 69 3.0 E 2 6 1 3 1022.6 1022.6 0.0
27/10:30am 16.2 15.6 8.9 62 3.7 N 2 7 1 4 1022.8 1022.8 0.0
27/10:00am 14.9 14.1 9.7 71 2.7 N 4 7 2 4 1023.2 1023.2 0.0
27/09:30am 12.9 12.3 10.3 84 1.3 NNW 4 7 2 4 1023.6 1023.6 0.0
27/09:00am 11.1 10.8 10.2 94 0.5 WNW 2 7 1 4 1023.7 1023.7 0.2
27/08:30am 9.6 9.5 9.6 100 0.0 CALM 0 6 0 3 1023.7 1023.7 0.2
27/08:00am 7.9 6.7 7.9 100 0.0 WSW 4 6 2 3 1023.6 1023.6 0.2
27/07:30am 6.8 4.0 6.8 100 0.0 WSW 11 15 6 8 1023.4 1023.4 0.2
27/07:08am 5.6 3.5 5.6 100 0.0 WSW 6 11 3 6 1023.4 1023.4 0.2
27/07:00am 5.4 4.0 5.4 100 0.0 W 2 7 1 4 1023.5 1023.5 0.2
27/06:56am 5.5 3.7 5.5 100 0.0 W 4 7 2 4 1023.4 1023.4 0.2
27/06:35am 4.9 3.8 4.9 100 0.0 CALM 0 0 0 0 1023.1 1023.1 0.2
27/06:30am 4.7 3.1 4.7 100 0.0 W 2 9 1 5 1023.1 1023.1 0.2
27/06:00am 4.8 3.6 4.8 100 0.0 CALM 0 0 0 0 1023.0 1023.0 0.2
27/05:30am 5.1 2.9 5.1 100 0.0 SW 6 7 3 4 1023.1 1023.1 0.2
27/05:00am 5.1 4.0 5.1 100 0.0 CALM 0 0 0 0 1022.9 1022.9 0.2
27/04:30am 4.9 3.8 4.9 100 0.0 CALM 0 0 0 0 1023.1 1023.1 0.2
27/04:00am 6.2 5.3 6.2 100 0.0 CALM 0 0 0 0 1023.5 1023.5 0.2
27/03:46am 6.7 5.9 6.7 100 0.0 CALM 0 2 0 1 1023.7 1023.7 0.2
27/03:30am 6.2 4.6 6.2 100 0.0 WNW 4 6 2 3 1023.8 1023.8 0.2
27/03:00am 6.9 6.2 6.9 100 0.0 CALM 0 0 0 0 1024.0 1024.0 0.2
27/02:30am 7.4 6.8 7.4 100 0.0 CALM 0 0 0 0 1024.4 1024.4 0.2
27/02:00am 7.5 6.9 7.5 100 0.0 CALM 0 0 0 0 1024.7 1024.7 0.2
27/01:30am 7.3 6.7 7.3 100 0.0 CALM 0 0 0 0 1024.8 1024.8 0.2
27/01:00am 7.4 5.7 7.4 100 0.0 W 6 9 3 5 1025.0 1025.0 0.2
27/12:30am 8.5 7.0 8.5 100 0.0 WSW 6 9 3 5 1025.2 1025.2 0.2
27/12:00am 8.8 8.5 8.7 99 0.0 CALM 0 6 0 3 1025.6 1025.6 0.2
 
Date/Time
EST
Temp
°C
App
Temp
°C
Dew
Point
Rel
Hum
%
Delta-T
°C
Wind Press
QNH
hPa
Press
MSL
hPa
Rain
since 9 am
mm
Dir
 
Spd
km/h
Gust
km/h
Spd
kts
Gust
kts
26/11:30pm 8.5 6.8 8.2 98 0.1 WSW 7 11 4 6 1025.8 1025.8 0.2
26/11:00pm 9.3 7.3 8.8 97 0.2 SW 9 11 5 6 1025.8 1025.8 0.2
26/10:30pm 9.0 7.4 8.2 95 0.4 WSW 6 9 3 5 1026.1 1026.1 0.2
26/10:00pm 9.1 8.5 7.5 90 0.8 CALM 0 4 0 2 1026.3 1026.3 0.2
26/09:30pm 10.0 8.4 8.1 88 0.9 W 6 9 3 5 1026.5 1026.5 0.2
26/09:00pm 10.2 8.4 8.1 87 1.0 W 7 11 4 6 1026.6 1026.6 0.2
26/08:30pm 10.4 8.3 8.3 87 1.0 W 9 13 5 7 1026.6 1026.6 0.2
26/08:00pm 10.9 9.3 8.8 87 1.0 W 7 11 4 6 1026.6 1026.6 0.2
26/07:30pm 10.2 8.7 9.1 93 0.5 W 7 9 4 5 1026.9 1026.9 0.2
26/07:00pm 9.0 7.5 8.5 97 0.2 WNW 6 9 3 5 1026.8 1026.8 0.2
26/06:30pm 8.7 7.0 8.3 97 0.2 W 7 9 4 5 1026.8 1026.8 0.2
26/06:00pm 8.6 6.9 8.3 98 0.1 WNW 7 11 4 6 1026.7 1026.7 0.2
26/05:30pm 9.1 8.8 8.6 97 0.2 CALM 0 0 0 0 1026.4 1026.4 0.2
26/05:00pm 9.7 9.4 8.8 94 0.4 CALM 0 4 0 2 1026.3 1026.3 0.2
26/04:30pm 10.8 10.6 8.9 88 0.9 CALM 0 0 0 0 1026.2 1026.2 0.2
26/04:00pm 12.5 12.1 8.2 75 2.1 CALM 0 0 0 0 1026.2 1026.2 0.2
26/03:30pm 15.2 12.9 5.7 53 4.5 ESE 7 9 4 5 1026.2 1026.2 0.2
26/03:00pm 16.3 13.4 4.7 46 5.4 ESE 9 11 5 6 1026.5 1026.5 0.2
26/02:30pm 16.8 13.7 3.5 41 6.1 E 9 13 5 7 1026.6 1026.6 0.2
26/02:00pm 16.8 13.8 4.2 43 5.9 ESE 9 13 5 7 1027.0 1027.0 0.2
26/01:30pm 16.7 13.7 4.1 43 5.9 E 9 13 5 7 1027.1 1027.1 0.2
26/01:00pm 16.9 14.5 5.2 46 5.6 E 7 11 4 6 1027.5 1027.5 0.2
26/12:30pm 16.7 14.5 5.3 47 5.5 SSE 6 9 3 5 1028.0 1028.0 0.0
26/12:00pm 16.4 14.1 5.7 49 5.1 SW 7 13 4 7 1028.6 1028.6 0.0
26/11:30am 15.8 13.1 5.7 51 4.8 SW 9 13 5 7 1029.1 1029.1 0.0
26/11:00am 15.2 13.4 8.0 62 3.6 WSW 7 11 4 6 1029.5 1029.5 0.0
26/10:30am 14.0 11.8 7.8 66 3.1 W 9 13 5 7 1029.9 1029.9 0.0
26/10:00am 13.0 11.4 8.7 75 2.1 WSW 7 11 4 6 1030.0 1030.0 0.0
26/09:30am 11.8 10.0 7.9 77 1.9 WSW 7 11 4 6 1030.1 1030.1 0.0
26/09:00am 9.8 7.9 6.9 82 1.4 W 6 9 3 5 1030.3 1030.3 0.0
26/08:30am 8.3 6.6 7.4 94 0.4 W 6 11 3 6 1030.3 1030.3 0.0
26/08:00am 6.7 4.6 6.7 100 0.0 W 7 11 4 6 1030.3 1030.3 0.0
26/07:30am 5.1 2.3 5.1 100 0.0 W 9 15 5 8 1030.0 1030.0 0.0
26/07:00am 4.3 1.7 4.3 100 0.0 WSW 7 9 4 5 1029.6 1029.6 0.0
26/06:30am 4.3 1.3 4.3 100 0.0 WSW 9 11 5 6 1029.2 1029.2 0.0
26/06:00am 4.2 1.6 4.2 100 0.0 WSW 7 9 4 5 1028.9 1028.9 0.0
26/05:30am 4.4 1.5 4.4 100 0.0 WSW 9 11 5 6 1028.9 1028.9 0.0
26/05:00am 4.5 2.0 4.5 100 0.0 WSW 7 7 4 4 1029.0 1029.0 0.0
26/04:30am 4.4 2.0 4.4 100 0.0 WSW 6 7 3 4 1028.9 1028.9 0.0
26/04:00am 4.3 1.9 4.3 100 0.0 WSW 6 7 3 4 1029.1 1029.1 0.0
26/03:30am 5.5 3.2 5.5 100 0.0 W 7 9 4 5 1029.1 1029.1 0.0
26/03:00am 5.5 3.2 5.5 100 0.0 W 7 9 4 5 1029.1 1029.1 0.0
26/02:30am 6.3 4.1 6.3 100 0.0 WSW 7 11 4 6 1029.3 1029.3 0.0
26/02:00am 7.0 5.2 7.0 100 0.0 WSW 6 9 3 5 1029.3 1029.3 0.0
26/01:30am 7.9 6.1 7.9 100 0.0 W 7 13 4 7 1029.5 1029.5 0.0
26/01:00am 7.8 5.6 7.7 99 0.0 WSW 9 13 5 7 1029.5 1029.5 0.0
26/12:30am 8.1 5.9 7.8 98 0.1 WSW 9 13 5 7 1029.7 1029.7 0.0
26/12:00am 8.8 6.7 8.4 97 0.2 W 9 13 5 7 1029.9 1029.9 0.0
 
Date/Time
EST
Temp
°C
App
Temp
°C
Dew
Point
Rel
Hum
%
Delta-T
°C
Wind Press
QNH
hPa
Press
MSL
hPa
Rain
since 9 am
mm
Dir
 
Spd
km/h
Gust
km/h
Spd
kts
Gust
kts
25/11:30pm 9.1 6.6 8.2 94 0.4 W 11 17 6 9 1029.8 1029.8 0.0
25/11:00pm 9.8 7.4 8.6 92 0.6 WSW 11 15 6 8 1030.0 1030.0 0.0
25/10:30pm 10.0 8.0 8.6 91 0.7 WSW 9 13 5 7 1030.2 1030.2 0.0
25/10:00pm 10.2 8.2 8.8 91 0.7 W 9 13 5 7 1030.2 1030.2 0.0
25/09:30pm 10.3 8.3 8.7 90 0.8 WSW 9 13 5 7 1030.1 1030.1 0.0
25/09:00pm 10.6 8.4 9.4 92 0.6 W 11 17 6 9 1030.1 1030.1 0.0
25/08:30pm 10.4 8.3 9.6 95 0.4 WSW 11 17 6 9 1029.9 1029.9 0.0
25/08:00pm 10.2 8.5 9.7 97 0.2 W 9 15 5 8 1029.8 1029.8 0.0
25/07:30pm 9.9 7.8 9.8 99 0.1 W 11 13 6 7 1029.6 1029.6 0.0
25/07:00pm 8.7 6.7 8.6 99 0.0 W 9 11 5 6 1029.4 1029.4 0.0
25/06:30pm 8.9 6.9 8.5 97 0.2 WSW 9 9 5 5 1029.1 1029.1 0.0
25/06:00pm 9.9 8.5 9.4 97 0.2 SW 7 9 4 5 1029.0 1029.0 0.0
25/05:30pm 10.7 9.6 9.9 95 0.4 WSW 6 9 3 5 1028.8 1028.8 0.0
25/05:00pm 12.0 10.9 9.9 87 1.1 W 6 7 3 4 1028.6 1028.6 0.0
25/04:30pm 14.4 13.1 10.0 75 2.3 SW 7 9 4 5 1028.6 1028.6 0.0
25/04:00pm 15.8 14.5 10.1 69 3.0 SW 7 11 4 6 1028.5 1028.5 0.0
25/03:30pm 15.0 13.8 10.2 73 2.5 SW 7 11 4 6 1028.3 1028.3 0.0
25/03:00pm 15.5 13.8 9.8 69 2.9 SW 9 13 5 7 1028.4 1028.4 0.0
25/02:30pm 15.5 14.0 9.2 66 3.2 SW 7 11 4 6 1028.4 1028.4 0.0
25/02:00pm 15.9 13.6 8.9 63 3.6 SSW 11 13 6 7 1028.5 1028.5 0.0
25/01:30pm 16.3 12.9 7.8 57 4.3 S 15 19 8 10 1028.6 1028.6 0.0
25/01:00pm 16.8 14.6 9.2 61 3.9 S 11 15 6 8 1028.5 1028.5 0.0
25/12:30pm 16.8 14.8 7.2 53 4.8 S 7 13 4 7 1028.7 1028.7 0.0
25/12:00pm 16.3 14.3 6.4 52 4.8 SW 6 9 3 5 1028.7 1028.7 0.0
25/11:30am 14.8 12.5 7.6 62 3.6 WSW 9 15 5 8 1029.4 1029.4 0.0
25/11:00am 13.0 10.4 7.7 70 2.6 WSW 11 17 6 9 1030.0 1030.0 0.0
25/10:30am 10.9 9.1 8.0 82 1.4 SW 7 11 4 6 1030.2 1030.2 0.0
25/10:00am 9.9 7.7 8.0 88 0.9 W 9 15 5 8 1030.3 1030.3 0.0
25/09:30am 8.7 6.6 8.3 97 0.2 SW 9 11 5 6 1030.2 1030.2 0.0
25/09:00am 8.2 6.1 8.2 100 0.0 WSW 9 15 5 8 1030.6 1030.6 0.0
25/08:30am 6.7 5.6 6.7 100 0.0 WSW 2 7 1 4 1030.4 1030.4 0.0
25/08:00am 5.2 3.0 5.2 100 0.0 W 6 7 3 4 1030.5 1030.5 0.0

Other Formats:

Comma delimited format used in spreadsheet applications
http://www.bom.gov.au/fwo/IDN60801/IDN60801.95937.axf

JavaScript Object Notation format (JSON) in row-major order
http://www.bom.gov.au/fwo/IDN60801/IDN60801.95937.json